Time;durP1;ratioP1;P1;durP2;ratioP2;P2;SDS_P1;SDS_P2;PMS_P1;PMS_P2;Temp;Humidity;BMP_temperature;BMP_pressure;BME280_temperature;BME280_humidity;BME280_pressure;Samples;Min_cycle;Max_cycle;Signal;HPM_P1;HPM_P2
2021/04/17 00:00:26;;;;;;;9.25;5.55;;;;;;;3.84;74.25;99449.75;5069673;28;20529;-69
2021/04/17 00:02:51;;;;;;;9.18;5.78;;;;;;;3.82;74.11;99438.34;5053679;28;20041;-70
2021/04/17 00:05:17;;;;;;;8.60;5.47;;;;;;;3.73;74.07;99426.66;5069907;28;20048;-69
2021/04/17 00:07:42;;;;;;;11.48;5.30;;;;;;;3.78;74.25;99434.28;5065270;28;20028;-69
2021/04/17 00:10:08;;;;;;;7.72;5.50;;;;;;;3.74;74.11;99439.06;5061426;28;20040;-69
2021/04/17 00:12:34;;;;;;;10.15;6.13;;;;;;;3.78;74.69;99444.16;5065863;28;20520;-69
2021/04/17 00:14:59;;;;;;;9.18;5.80;;;;;;;3.65;74.63;99431.91;5055322;28;20020;-69
2021/04/17 00:17:24;;;;;;;9.32;5.55;;;;;;;3.65;74.45;99434.56;5073468;28;20016;-70
2021/04/17 00:19:52;;;;;;;8.63;4.95;;;;;;;3.56;74.50;99421.22;5063396;28;20033;-70
2021/04/17 00:22:18;;;;;;;8.18;5.75;;;;;;;3.54;74.66;99417.81;5055026;28;20028;-69
2021/04/17 00:24:43;;;;;;;7.30;5.70;;;;;;;3.51;74.85;99418.94;5066754;28;20035;-70
2021/04/17 00:27:09;;;;;;;8.40;5.97;;;;;;;3.56;74.92;99416.69;5073740;28;20028;-69
2021/04/17 00:29:35;;;;;;;8.52;5.53;;;;;;;3.60;75.45;99428.81;5073431;28;20398;-70
2021/04/17 00:32:02;;;;;;;8.32;5.75;;;;;;;3.58;75.16;99425.44;5061061;28;20506;-69
2021/04/17 00:34:27;;;;;;;9.23;5.97;;;;;;;3.58;75.67;99424.59;5059368;28;20104;-70
2021/04/17 00:36:53;;;;;;;8.50;5.95;;;;;;;3.45;75.89;99403.47;5072859;28;20063;-69
2021/04/17 00:39:18;;;;;;;8.10;5.50;;;;;;;3.51;75.72;99413.59;5074455;28;20034;-70
2021/04/17 00:41:44;;;;;;;9.43;5.47;;;;;;;3.60;75.46;99417.28;5074553;28;20470;-70
2021/04/17 00:44:09;;;;;;;8.77;5.57;;;;;;;3.59;75.66;99418.25;5057013;28;20032;-70
2021/04/17 00:46:35;;;;;;;9.35;5.90;;;;;;;3.56;75.62;99414.03;5058201;28;20502;-69
2021/04/17 00:49:08;;;;;;;8.98;5.88;;;;;;;3.54;75.64;99409.81;5072798;28;20028;-70
2021/04/17 00:51:34;;;;;;;8.30;5.72;;;;;;;3.51;75.81;99408.25;5056872;28;20108;-70
2021/04/17 00:54:00;;;;;;;9.52;5.72;;;;;;;3.47;75.63;99398.84;5070155;28;20031;-70
2021/04/17 00:56:25;;;;;;;9.18;6.15;;;;;;;3.43;76.03;99395.63;5074531;28;20021;-69
2021/04/17 00:58:51;;;;;;;8.70;5.63;;;;;;;3.48;75.89;99388.00;5066130;28;20434;-70
2021/04/17 01:01:16;;;;;;;11.35;5.97;;;;;;;3.53;76.26;99405.44;5064225;28;20028;-72
2021/04/17 01:03:53;;;;;;;9.45;6.00;;;;;;;3.49;76.22;99405.75;5068010;28;20032;-70
2021/04/17 01:06:22;;;;;;;8.05;5.60;;;;;;;3.38;76.49;99397.88;5053139;28;20025;-70
2021/04/17 01:09:02;;;;;;;8.52;6.38;;;;;;;3.44;76.16;99413.34;5070124;28;20025;-70
2021/04/17 01:11:36;;;;;;;9.95;6.43;;;;;;;3.43;76.53;99400.09;5072745;28;20040;-70
2021/04/17 01:14:02;;;;;;;10.20;6.45;;;;;;;3.48;75.90;99408.53;5058002;28;20113;-70
2021/04/17 01:16:28;;;;;;;11.35;6.05;;;;;;;3.50;76.38;99406.56;5069478;28;20100;-70
2021/04/17 01:18:55;;;;;;;10.75;6.47;;;;;;;3.43;76.47;99398.31;5073299;28;20375;-70
2021/04/17 01:21:21;;;;;;;10.25;6.50;;;;;;;3.49;76.15;99411.09;5066499;28;20024;-70
2021/04/17 01:23:51;;;;;;;9.68;6.45;;;;;;;3.49;75.97;99411.09;5057585;28;20086;-70
2021/04/17 01:26:20;;;;;;;8.90;5.90;;;;;;;3.45;76.30;99398.13;5065545;28;20029;-70
2021/04/17 01:28:49;;;;;;;10.35;6.22;;;;;;;3.49;76.74;99407.56;5069458;28;20069;-69
2021/04/17 01:31:18;;;;;;;8.93;6.22;;;;;;;3.48;76.49;99408.53;5058846;28;20029;-69
2021/04/17 01:33:46;;;;;;;11.70;6.28;;;;;;;3.45;76.80;99398.97;5061129;28;20162;-70
2021/04/17 01:36:13;;;;;;;10.98;6.15;;;;;;;3.46;77.02;99405.19;5065488;28;20525;-70
2021/04/17 01:38:48;;;;;;;11.18;6.63;;;;;;;3.47;76.62;99397.00;5071496;28;20421;-69
2021/04/17 01:41:25;;;;;;;9.30;6.80;;;;;;;3.48;76.92;99403.19;5069731;28;20043;-70
2021/04/17 01:43:54;;;;;;;10.30;6.90;;;;;;;3.48;76.87;99406.75;5071588;28;20035;-70
2021/04/17 01:46:23;;;;;;;10.45;6.45;;;;;;;3.35;76.59;99381.25;5064332;28;20094;-69
2021/04/17 01:48:54;;;;;;;11.15;6.35;;;;;;;3.49;76.51;99402.22;5069929;28;20039;-70
2021/04/17 01:51:20;;;;;;;8.85;6.30;;;;;;;3.46;76.64;99391.81;5073068;28;20028;-70
2021/04/17 01:53:47;;;;;;;9.98;6.53;;;;;;;3.55;76.36;99388.25;5063286;28;20371;-70
2021/04/17 01:56:15;;;;;;;11.57;6.38;;;;;;;3.57;75.86;99391.66;5073259;28;20032;-70
2021/04/17 01:58:42;;;;;;;11.20;7.28;;;;;;;3.57;75.57;99394.31;5072864;28;20035;-70
2021/04/17 02:01:07;;;;;;;9.93;7.18;;;;;;;3.56;75.81;99384.59;5064465;28;20031;-70
2021/04/17 02:03:33;;;;;;;11.50;6.82;;;;;;;3.58;75.93;99381.78;5072884;28;20020;-71
2021/04/17 02:05:58;;;;;;;11.80;7.82;;;;;;;3.53;75.99;99379.53;5070776;28;20028;-71
2021/04/17 02:08:24;;;;;;;14.15;6.95;;;;;;;3.60;75.73;99380.66;5059867;28;20048;-71
2021/04/17 02:10:51;;;;;;;10.95;6.65;;;;;;;3.59;76.00;99386.13;5072805;28;20111;-71
2021/04/17 02:13:17;;;;;;;11.07;7.72;;;;;;;3.53;75.84;99379.53;5053892;28;20029;-71
2021/04/17 02:15:44;;;;;;;10.27;6.78;;;;;;;3.50;76.11;99369.13;5052832;28;20060;-70
2021/04/17 02:18:23;;;;;;;10.82;7.05;;;;;;;3.64;76.01;99387.41;5066873;28;20073;-71
2021/04/17 02:20:54;;;;;;;;;;;;;;;3.59;76.29;99384.31;5071407;28;20372;-70
2021/04/17 02:23:21;;;;;;;14.30;7.05;;;;;;;3.55;75.85;99382.91;5072870;28;19953;-71
2021/04/17 02:25:46;;;;;;;11.75;6.82;;;;;;;3.48;76.04;99371.09;5071512;28;20024;-70
2021/04/17 02:28:12;;;;;;;11.73;6.85;;;;;;;3.44;76.62;99359.84;5070749;28;20399;-69
2021/04/17 02:30:38;;;;;;;10.50;7.22;;;;;;;3.49;76.18;99367.44;5064962;28;20055;-69
2021/04/17 02:33:04;;;;;;;12.40;7.25;;;;;;;3.48;76.42;99365.75;5072389;28;20042;-69
2021/04/17 02:35:29;;;;;;;10.60;7.10;;;;;;;3.55;76.80;99377.56;5060552;28;20494;-69
2021/04/17 02:37:54;;;;;;;11.20;7.80;;;;;;;3.53;77.04;99374.19;5056303;28;20021;-69
2021/04/17 02:40:20;;;;;;;10.43;6.95;;;;;;;3.53;77.11;99370.66;5057222;28;20043;-70
2021/04/17 02:42:45;;;;;;;12.82;8.13;;;;;;;3.51;77.07;99371.66;5052500;28;20021;-70
2021/04/17 02:45:11;;;;;;;13.90;8.15;;;;;;;3.50;76.87;99375.31;5066914;28;20028;-70
2021/04/17 02:47:36;;;;;;;12.02;7.28;;;;;;;3.53;76.16;99382.22;5071592;28;20029;-70
2021/04/17 02:50:03;;;;;;;11.18;7.70;;;;;;;3.59;76.46;99380.78;5067855;28;20029;-70
2021/04/17 02:52:28;;;;;;;10.82;7.15;;;;;;;3.59;76.11;99368.28;5053318;28;20032;-70
2021/04/17 02:54:53;;;;;;;12.25;7.25;;;;;;;3.52;76.02;99356.47;5063450;28;20032;-70
2021/04/17 02:57:18;;;;;;;12.38;7.30;;;;;;;3.60;76.01;99372.63;5070432;28;20017;-69
2021/04/17 02:59:44;;;;;;;13.68;7.65;;;;;;;3.56;76.84;99367.69;5067590;28;20084;-69
2021/04/17 03:02:09;;;;;;;11.27;8.10;;;;;;;3.46;76.88;99357.88;5070280;28;20024;-70
2021/04/17 03:04:34;;;;;;;11.82;7.72;;;;;;;3.52;77.16;99364.47;5066043;28;20028;-69
2021/04/17 03:07:00;;;;;;;11.77;7.70;;;;;;;3.49;77.05;99362.94;5055511;28;20467;-70
2021/04/17 03:09:25;;;;;;;11.02;7.30;;;;;;;3.42;76.89;99355.63;5071797;28;20432;-70
2021/04/17 03:11:51;;;;;;;11.27;7.40;;;;;;;3.45;76.96;99356.19;5068833;28;20033;-70
2021/04/17 03:14:16;;;;;;;11.82;7.72;;;;;;;3.30;76.68;99336.22;5071938;28;20440;-70
2021/04/17 03:16:41;;;;;;;10.10;6.97;;;;;;;3.33;77.02;99343.09;5061447;28;20470;-70
2021/04/17 03:19:07;;;;;;;11.73;7.70;;;;;;;3.38;76.89;99354.22;5066151;28;20056;-70
2021/04/17 03:21:32;;;;;;;15.93;8.02;;;;;;;3.34;76.51;99351.00;5066432;28;20052;-70
2021/04/17 03:23:57;;;;;;;12.02;7.55;;;;;;;3.33;76.54;99337.75;5069013;28;20039;-70
2021/04/17 03:26:23;;;;;;;12.20;7.53;;;;;;;3.36;76.95;99359.72;5070615;28;20029;-70
2021/04/17 03:28:48;;;;;;;14.98;7.55;;;;;;;3.24;76.72;99345.66;5071233;28;20036;-70
2021/04/17 03:31:13;;;;;;;12.32;7.97;;;;;;;3.26;76.95;99340.19;5070422;28;20028;-70
2021/04/17 03:33:39;;;;;;;13.23;8.25;;;;;;;3.23;77.00;99330.63;5070876;28;20075;-70
2021/04/17 03:36:05;;;;;;;12.65;8.25;;;;;;;3.25;77.31;99351.88;5068615;28;20028;-70
2021/04/17 03:38:30;;;;;;;15.32;8.57;;;;;;;3.08;77.31;99345.41;5070326;28;20028;-70
2021/04/17 03:40:55;;;;;;;14.23;7.80;;;;;;;3.02;77.62;99340.63;5070651;28;20448;-70
2021/04/17 03:43:21;;;;;;;13.55;8.15;;;;;;;2.97;77.11;99340.22;5070031;28;20455;-70
2021/04/17 03:45:46;;;;;;;15.30;7.65;;;;;;;2.95;77.83;99353.72;5066861;28;20032;-70
2021/04/17 03:48:11;;;;;;;14.10;8.50;;;;;;;2.85;77.60;99344.84;5051649;28;20025;-70
2021/04/17 03:50:37;;;;;;;14.80;9.15;;;;;;;2.87;77.90;99350.06;5062308;28;20476;-71
2021/04/17 03:53:03;;;;;;;18.58;8.40;;;;;;;2.77;78.12;99353.56;5075326;28;20032;-71
2021/04/17 03:55:28;;;;;;;12.90;8.30;;;;;;;2.68;77.74;99340.22;5090966;28;20054;-71
2021/04/17 03:57:53;;;;;;;12.25;8.43;;;;;;;2.77;77.84;99353.56;5078389;28;20016;-70
2021/04/17 04:00:20;;;;;;;13.60;8.38;;;;;;;2.67;77.87;99343.84;5072691;28;20223;-73
2021/04/17 04:02:47;;;;;;;15.02;8.88;;;;;;;2.75;77.75;99362.69;5071404;28;20025;-73
2021/04/17 04:05:13;;;;;;;12.30;8.15;;;;;;;2.75;77.96;99362.69;5061280;28;20033;-74
2021/04/17 04:07:39;;;;;;;13.18;7.97;;;;;;;2.66;78.16;99348.38;5066070;28;20372;-70
2021/04/17 04:10:06;;;;;;;14.05;8.00;;;;;;;2.68;77.88;99351.75;5067265;28;20082;-75
2021/04/17 04:12:31;;;;;;;14.07;8.48;;;;;;;2.64;77.99;99364.53;5060234;28;20104;-71
2021/04/17 04:14:57;;;;;;;11.90;8.18;;;;;;;2.49;77.80;99355.25;5058437;28;20107;-72
2021/04/17 04:17:23;;;;;;;13.77;8.23;;;;;;;2.36;78.50;99350.16;5072649;28;20503;-71
2021/04/17 04:19:48;;;;;;;13.25;8.40;;;;;;;2.27;78.86;99358.97;5065087;28;20072;-73
2021/04/17 04:22:14;;;;;;;15.05;9.45;;;;;;;2.16;79.00;99357.25;5061507;28;20024;-71
2021/04/17 04:24:39;;;;;;;13.85;8.88;;;;;;;2.10;79.61;99354.31;5058160;28;20032;-71
2021/04/17 04:27:05;;;;;;;17.30;9.02;;;;;;;2.07;79.38;99357.22;5067605;28;20043;-72
2021/04/17 04:29:30;;;;;;;13.45;8.32;;;;;;;1.95;79.65;99360.00;5071312;28;20474;-73
2021/04/17 04:31:56;;;;;;;15.85;9.07;;;;;;;1.93;79.82;99356.63;5072462;28;20038;-73
2021/04/17 04:34:21;;;;;;;17.10;9.85;;;;;;;1.84;80.41;99351.28;5075323;28;20040;-75
2021/04/17 04:36:46;;;;;;;13.88;9.23;;;;;;;1.79;80.37;99358.81;5074958;28;20039;-75
2021/04/17 04:39:12;;;;;;;15.00;9.63;;;;;;;1.62;80.54;99342.44;5069685;28;20094;-76
2021/04/17 04:41:37;;;;;;;14.07;8.95;;;;;;;1.61;80.59;99353.25;5068979;28;20028;-74
2021/04/17 04:44:04;;;;;;;16.42;9.25;;;;;;;1.63;80.81;99360.16;5068777;28;20037;-78
2021/04/17 04:46:31;;;;;;;16.60;9.57;;;;;;;1.59;81.08;99353.38;5056380;28;20048;-76
2021/04/17 04:48:56;;;;;;;16.48;9.55;;;;;;;1.64;81.04;99355.66;5061868;28;20029;-74
2021/04/17 04:51:21;;;;;;;14.23;8.57;;;;;;;1.85;80.87;99385.81;5066184;28;20060;-74
2021/04/17 04:53:46;;;;;;;14.48;9.48;;;;;;;2.04;80.20;99379.69;5073378;28;20021;-74
2021/04/17 04:56:12;;;;;;;24.38;12.55;;;;;;;2.24;79.27;99387.78;5064964;28;20044;-76
2021/04/17 04:58:37;;;;;;;16.02;8.90;;;;;;;2.17;79.16;99353.63;5063596;28;20116;-76
2021/04/17 05:01:03;;;;;;;16.33;8.52;;;;;;;2.42;78.60;99395.00;5068161;28;20162;-75
2021/04/17 05:03:28;;;;;;;16.60;8.63;;;;;;;2.47;78.94;99383.06;5088595;28;20035;-74
2021/04/17 05:05:53;;;;;;;13.25;8.02;;;;;;;2.39;79.04;99371.25;5073968;28;20028;-73
2021/04/17 05:08:19;;;;;;;21.02;8.63;;;;;;;2.58;79.00;99390.97;5072669;28;20020;-72
2021/04/17 05:10:44;;;;;;;15.68;9.10;;;;;;;2.60;78.66;99389.00;5055925;28;20036;-73
2021/04/17 05:13:09;;;;;;;14.43;8.07;;;;;;;2.54;78.66;99362.81;5066144;28;20024;-74
2021/04/17 05:15:34;;;;;;;15.80;8.65;;;;;;;2.69;78.87;99379.31;5057497;28;20028;-73
2021/04/17 05:18:00;;;;;;;16.75;8.77;;;;;;;2.73;78.29;99365.53;5065840;28;20081;-73
2021/04/17 05:20:25;;;;;;;16.45;9.00;;;;;;;2.89;77.61;99385.50;5087404;22;20048;-70
2021/04/17 05:22:50;;;;;;;18.77;9.40;;;;;;;2.91;77.49;99375.50;5074576;28;20032;-71
2021/04/17 05:25:16;;;;;;;13.85;8.55;;;;;;;3.06;76.95;99382.13;5075480;28;20139;-71
2021/04/17 05:27:41;;;;;;;12.98;8.60;;;;;;;3.14;77.08;99381.41;5074785;28;20040;-70
2021/04/17 05:30:07;;;;;;;17.15;8.88;;;;;;;3.22;76.83;99379.75;5075669;28;20040;-70
2021/04/17 05:32:32;;;;;;;15.50;9.00;;;;;;;3.26;76.27;99373.09;5052040;28;20063;-70
2021/04/17 05:34:58;;;;;;;13.82;9.13;;;;;;;3.40;75.57;99370.97;5051582;28;20056;-70
2021/04/17 05:37:23;;;;;;;17.73;10.55;;;;;;;3.38;75.57;99363.13;5054592;28;20090;-69
2021/04/17 05:39:48;;;;;;;17.85;10.65;;;;;;;3.48;75.34;99373.78;5056365;28;20037;-70
2021/04/17 05:42:14;;;;;;;14.27;9.20;;;;;;;3.60;75.29;99377.97;5042699;28;20032;-71
2021/04/17 05:44:39;;;;;;;19.88;10.52;;;;;;;3.53;74.70;99368.84;5059152;28;20039;-71
2021/04/17 05:47:04;;;;;;;18.15;11.00;;;;;;;3.64;75.02;99376.72;5035174;28;20097;-71
2021/04/17 05:49:30;;;;;;;15.73;9.55;;;;;;;3.71;75.02;99376.97;5042583;28;20028;-71
2021/04/17 05:51:55;;;;;;;17.77;10.20;;;;;;;3.84;74.38;99382.00;5052519;28;20037;-71
2021/04/17 05:54:20;;;;;;;18.95;10.65;;;;;;;4.05;73.88;99382.59;5046476;28;20055;-73
2021/04/17 05:56:46;;;;;;;15.70;9.55;;;;;;;4.20;73.95;99377.63;5053890;28;20478;-71
2021/04/17 05:59:11;;;;;;;16.45;9.70;;;;;;;4.26;73.03;99386.88;5049633;28;20036;-70
2021/04/17 06:01:36;;;;;;;15.32;9.05;;;;;;;4.26;73.15;99384.22;5042430;28;20029;-70
2021/04/17 06:04:02;;;;;;;16.13;9.90;;;;;;;4.37;73.61;99389.38;5041419;28;20435;-70
2021/04/17 06:06:27;;;;;;;16.77;10.25;;;;;;;4.39;73.17;99390.06;5042012;28;20036;-70
2021/04/17 06:08:53;;;;;;;14.93;9.68;;;;;;;4.51;72.60;99396.06;5039565;28;20033;-70
2021/04/17 06:11:18;;;;;;;14.90;9.55;;;;;;;4.61;72.58;99403.06;5046556;28;20031;-70
2021/04/17 06:13:43;;;;;;;16.65;10.40;;;;;;;4.66;71.72;99386.50;5049397;28;20029;-70
2021/04/17 06:16:09;;;;;;;14.73;9.05;;;;;;;4.89;71.83;99394.97;5047539;28;20099;-71
2021/04/17 06:18:35;;;;;;;13.55;8.68;;;;;;;4.96;71.49;99396.03;5042752;28;20018;-70
2021/04/17 06:21:01;;;;;;;14.70;9.02;;;;;;;4.91;72.01;99390.28;5038075;28;20049;-70
2021/04/17 06:23:26;;;;;;;13.63;8.70;;;;;;;5.02;72.02;99389.22;5039039;28;20053;-71
2021/04/17 06:25:52;;;;;;;16.70;8.98;;;;;;;5.23;71.23;99396.94;5039287;28;20026;-70
2021/04/17 06:28:18;;;;;;;14.77;8.88;;;;;;;5.22;70.15;99390.75;5049350;28;20028;-75
2021/04/17 06:30:44;;;;;;;12.98;8.50;;;;;;;5.10;69.97;99396.50;5052125;28;20021;-75
2021/04/17 06:33:09;;;;;;;13.60;8.35;;;;;;;5.43;68.80;99387.72;5050917;28;20025;-75
2021/04/17 06:35:36;;;;;;;14.75;8.77;;;;;;;5.98;67.75;99391.16;5042337;28;20132;-74
2021/04/17 06:38:02;;;;;;;11.77;7.93;;;;;;;6.53;64.86;99390.72;5039802;28;20025;-75
2021/04/17 06:40:27;;;;;;;11.35;7.80;;;;;;;6.74;64.29;99385.72;5037208;28;20022;-73
2021/04/17 06:42:54;;;;;;;13.77;8.27;;;;;;;7.55;63.05;99383.28;5038832;28;20032;-71
2021/04/17 06:45:22;;;;;;;12.05;7.55;;;;;;;8.69;59.40;99379.41;5045450;28;20547;-68
2021/04/17 06:47:48;;;;;;;15.27;7.82;;;;;;;8.30;59.06;99364.03;5051075;28;20033;-76
2021/04/17 06:50:14;;;;;;;12.23;8.35;;;;;;;8.52;57.38;99368.72;5054449;28;20029;-75
2021/04/17 06:52:41;;;;;;;12.30;7.70;;;;;;;8.73;57.40;99375.34;5047146;28;20501;-69
2021/04/17 06:55:09;;;;;;;14.85;9.50;;;;;;;8.71;57.16;99366.59;5054038;28;20025;-74
2021/04/17 06:57:36;;;;;;;14.48;9.32;;;;;;;8.01;59.50;99368.19;5053062;28;20025;-73
2021/04/17 07:00:04;;;;;;;14.98;8.80;;;;;;;8.44;57.32;99366.06;5040499;28;20036;-72
2021/04/17 07:02:30;;;;;;;17.03;9.67;;;;;;;8.83;57.35;99358.91;5041334;28;20025;-71
2021/04/17 07:04:56;;;;;;;19.92;10.07;;;;;;;8.69;57.10;99352.44;5048525;28;20039;-70
2021/04/17 07:07:22;;;;;;;18.73;8.73;;;;;;;8.67;56.40;99370.63;5044787;28;20029;-72
2021/04/17 07:09:47;;;;;;;13.23;8.18;;;;;;;9.01;56.90;99364.84;5057623;28;20086;-71
2021/04/17 07:12:13;;;;;;;11.68;7.55;;;;;;;9.72;54.67;99360.06;5048364;28;20083;-71
2021/04/17 07:14:43;;;;;;;15.57;8.27;;;;;;;9.82;54.30;99357.94;5041815;28;20036;-70
2021/04/17 07:17:09;;;;;;;13.25;8.02;;;;;;;9.92;53.71;99348.69;5053661;28;20067;-74
2021/04/17 07:19:59;;;;;;;10.57;7.50;;;;;;;10.56;52.76;99348.97;5051151;28;20017;-71
2021/04/17 07:22:29;;;;;;;10.02;7.03;;;;;;;11.32;50.68;99348.50;5053566;28;20028;-71
2021/04/17 07:25:12;;;;;;;11.32;7.05;;;;;;;12.21;49.39;99345.22;5046549;28;20035;-70
2021/04/17 07:27:51;;;;;;;12.52;6.75;;;;;;;12.06;48.88;99348.88;5046971;28;20029;-73
2021/04/17 07:30:16;;;;;;;7.75;5.95;;;;;;;11.74;49.19;99349.47;5056914;28;20024;-73
2021/04/17 07:32:42;;;;;;;10.05;6.53;;;;;;;12.13;49.57;99353.50;5047900;28;20372;-73
2021/04/17 07:35:11;;;;;;;9.38;6.68;;;;;;;12.03;49.39;99348.44;5042999;28;20023;-74
2021/04/17 07:37:38;;;;;;;12.50;6.50;;;;;;;11.84;49.36;99344.50;5040365;28;20014;-73
2021/04/17 07:40:30;;;;;;;12.07;7.38;;;;;;;11.61;49.92;99350.22;5042321;28;20033;-73
2021/04/17 07:42:57;;;;;;;8.77;6.40;;;;;;;12.93;47.62;99350.06;5050791;28;20486;-73
2021/04/17 07:45:27;;;;;;;11.25;6.82;;;;;;;13.33;46.60;99355.59;5063959;28;20025;-72
2021/04/17 07:47:55;;;;;;;10.40;6.90;;;;;;;14.38;45.78;99343.97;5051080;28;20036;-73
2021/04/17 07:50:20;;;;;;;9.93;6.60;;;;;;;14.65;45.63;99334.69;5049387;28;20029;-71
2021/04/17 07:52:48;;;;;;;9.65;7.00;;;;;;;14.11;45.77;99344.03;5041115;28;20079;-71
2021/04/17 07:55:17;;;;;;;9.10;5.90;;;;;;;12.79;46.77;99347.53;5049680;28;20502;-71
2021/04/17 07:57:52;;;;;;;9.55;5.78;;;;;;;14.03;44.60;99347.00;5051279;28;20029;-71
2021/04/17 08:00:22;;;;;;;8.02;6.20;;;;;;;13.18;46.52;99345.94;5044905;28;20028;-71
2021/04/17 08:02:51;;;;;;;9.02;5.75;;;;;;;12.53;48.00;99348.28;5041865;28;20025;-71
2021/04/17 08:05:17;;;;;;;9.32;5.78;;;;;;;12.20;48.59;99340.81;5044669;28;20028;-70
2021/04/17 08:07:43;;;;;;;7.95;5.32;;;;;;;11.54;49.81;99343.91;5047488;28;20032;-72
2021/04/17 08:10:10;;;;;;;10.80;6.03;;;;;;;11.41;50.68;99339.19;5047353;28;20025;-71
2021/04/17 08:12:37;;;;;;;8.43;5.65;;;;;;;13.15;46.51;99341.75;5046508;28;20070;-75
2021/04/17 08:15:05;;;;;;;8.25;5.82;;;;;;;16.95;40.73;99329.41;5064494;28;20382;-68
2021/04/17 08:17:30;;;;;;;7.80;5.07;;;;;;;19.27;34.71;99310.53;5038657;28;20101;-67
2021/04/17 08:19:57;;;;;;;10.13;4.70;;;;;;;19.61;33.96;99316.88;5050211;28;20048;-68
2021/04/17 08:22:24;;;;;;;10.05;4.85;;;;;;;19.82;33.99;99315.31;5049888;28;20029;-69
2021/04/17 08:24:50;;;;;;;5.72;4.30;;;;;;;20.34;32.80;99312.19;5049878;28;20102;-69
2021/04/17 08:27:16;;;;;;;7.13;4.68;;;;;;;21.35;32.39;99315.53;5032048;28;20192;-69
2021/04/17 08:29:50;;;;;;;6.63;4.65;;;;;;;19.97;34.10;99314.72;5035651;28;20558;-70
2021/04/17 08:32:22;;;;;;;10.10;5.28;;;;;;;16.11;39.54;99321.84;5038614;28;20036;-70
2021/04/17 08:35:03;;;;;;;6.10;4.07;;;;;;;14.64;41.34;99324.81;5037105;28;20033;-70
2021/04/17 08:37:33;;;;;;;8.25;4.88;;;;;;;14.50;42.13;99323.19;5040741;28;20368;-69
2021/04/17 08:40:00;;;;;;;7.55;4.70;;;;;;;15.02;42.03;99320.44;5040952;28;20028;-70
2021/04/17 08:42:44;;;;;;;10.82;4.50;;;;;;;16.40;39.11;99309.31;5049252;28;20108;-70
2021/04/17 08:45:15;;;;;;;6.38;4.00;;;;;;;17.82;37.76;99323.47;5045238;28;20036;-70
2021/04/17 08:48:03;;;;;;;5.63;3.90;;;;;;;19.64;33.53;99310.06;5052114;28;20068;-70
2021/04/17 08:50:35;;;;;;;4.60;3.42;;;;;;;22.21;30.98;99309.06;5047741;28;20033;-70
2021/04/17 08:53:10;;;;;;;7.78;3.65;;;;;;;21.62;30.96;99304.53;5049412;28;20090;-70
2021/04/17 08:55:35;;;;;;;6.93;4.03;;;;;;;20.72;32.66;99304.16;5051427;28;20116;-70
2021/04/17 08:58:21;;;;;;;4.23;2.93;;;;;;;17.71;35.45;99305.91;5050978;28;20107;-71
2021/04/17 09:00:53;;;;;;;5.78;3.10;;;;;;;16.85;37.01;99299.94;5050652;28;20287;-70
2021/04/17 09:03:44;;;;;;;3.38;2.95;;;;;;;16.05;38.49;99306.34;5050114;28;20028;-71
2021/04/17 09:06:25;;;;;;;4.97;3.00;;;;;;;15.05;39.63;99309.09;5050253;28;20023;-71
2021/04/17 09:09:15;;;;;;;5.75;3.03;;;;;;;17.52;35.15;99297.81;5044987;28;20088;-71
2021/04/17 09:11:42;;;;;;;5.18;3.00;;;;;;;19.57;31.76;99276.44;5050909;28;20076;-71
2021/04/17 09:14:25;;;;;;;7.50;3.15;;;;;;;19.11;32.84;99281.19;5046762;28;20033;-71
2021/04/17 09:16:51;;;;;;;6.45;3.42;;;;;;;17.79;33.94;99286.44;5051268;28;20032;-70
2021/04/17 09:19:41;;;;;;;5.75;3.08;;;;;;;15.90;36.57;99290.34;5050368;28;20013;-70
2021/04/17 09:22:30;;;;;;;7.47;3.67;;;;;;;14.30;38.21;99287.03;5047368;28;20056;-70
2021/04/17 09:25:03;;;;;;;5.13;2.17;;;;;;;13.70;39.32;99289.94;5040489;28;20029;-70
2021/04/17 09:27:30;;;;;;;5.03;2.25;;;;;;;13.42;40.85;99285.59;5046561;28;20049;-68
2021/04/17 09:30:20;;;;;;;4.65;2.42;;;;;;;12.74;41.90;99291.13;5050316;28;20559;-69
2021/04/17 09:32:49;;;;;;;3.63;2.08;;;;;;;12.73;40.25;99278.56;5043748;28;20088;-70
2021/04/17 09:35:21;;;;;;;3.33;1.90;;;;;;;13.34;39.33;99286.63;5051491;28;20044;-70
2021/04/17 09:37:57;;;;;;;6.28;2.88;;;;;;;15.98;36.39;99276.41;5049947;28;20025;-70
2021/04/17 09:40:51;;;;;;;4.32;2.03;;;;;;;19.91;31.37;99261.63;5051137;28;20429;-71
2021/04/17 09:43:24;;;;;;;3.75;1.85;;;;;;;20.67;29.86;99263.72;5048145;28;20052;-71
2021/04/17 09:45:51;;;;;;;3.83;1.75;;;;;;;18.66;31.14;99247.16;5041311;28;20035;-71
2021/04/17 09:48:19;;;;;;;4.18;2.30;;;;;;;19.92;30.63;99245.97;5046859;28;20112;-71
2021/04/17 09:50:45;;;;;;;3.85;2.13;;;;;;;17.44;32.75;99269.97;5051611;28;20035;-71
2021/04/17 09:53:16;;;;;;;3.55;2.10;;;;;;;16.21;34.84;99263.97;5047621;28;20033;-70
2021/04/17 09:55:49;;;;;;;6.82;2.20;;;;;;;17.09;33.82;99265.28;5048864;28;20487;-71
2021/04/17 09:58:31;;;;;;;4.20;2.63;;;;;;;19.80;31.32;99251.56;5042298;28;20478;-69
2021/04/17 10:01:09;;;;;;;4.28;2.70;;;;;;;19.47;30.10;99241.47;5047978;28;20025;-69
2021/04/17 10:03:37;;;;;;;2.97;1.80;;;;;;;19.28;30.72;99240.88;5036438;28;20099;-71
2021/04/17 10:06:03;;;;;;;3.38;2.15;;;;;;;19.13;30.79;99227.75;5041850;28;20106;-71
2021/04/17 10:08:34;;;;;;;3.75;2.13;;;;;;;18.71;31.75;99244.53;5050055;28;20025;-70
2021/04/17 10:11:00;;;;;;;3.90;2.17;;;;;;;20.54;30.45;99240.19;5049751;28;20111;-71
2021/04/17 10:13:43;;;;;;;3.70;2.30;;;;;;;20.27;29.63;99237.34;5040839;28;20034;-69
2021/04/17 10:16:10;;;;;;;4.93;2.40;;;;;;;20.47;29.54;99233.22;5036081;28;20120;-71
2021/04/17 10:18:37;;;;;;;3.92;2.47;;;;;;;19.25;32.03;99228.47;5030603;28;20029;-71
2021/04/17 10:21:04;;;;;;;4.20;2.00;;;;;;;17.43;33.53;99230.84;5040102;28;20021;-70
2021/04/17 10:23:29;;;;;;;5.70;2.10;;;;;;;16.34;34.46;99238.38;5045156;28;20142;-70
2021/04/17 10:26:03;;;;;;;3.30;2.28;;;;;;;15.70;35.97;99238.72;5042087;28;20029;-71
2021/04/17 10:28:30;;;;;;;8.25;2.95;;;;;;;15.34;37.44;99231.28;5042831;28;20040;-70
2021/04/17 10:30:58;;;;;;;4.90;2.70;;;;;;;16.13;36.73;99236.97;5049912;28;20032;-72
2021/04/17 10:33:29;;;;;;;4.63;2.50;;;;;;;17.27;35.61;99226.09;5045950;28;20037;-72
2021/04/17 10:35:59;;;;;;;5.07;2.70;;;;;;;16.79;35.91;99227.91;5046047;28;20037;-72
2021/04/17 10:38:30;;;;;;;3.78;2.75;;;;;;;16.24;36.86;99227.16;5047411;28;20035;-73
2021/04/17 10:40:59;;;;;;;4.32;2.63;;;;;;;16.98;35.14;99225.09;5050027;28;20036;-69
2021/04/17 10:43:25;;;;;;;3.72;2.30;;;;;;;18.58;34.09;99218.25;5043963;28;20123;-72
2021/04/17 10:45:57;;;;;;;5.28;2.28;;;;;;;18.25;32.83;99212.66;5046687;28;20029;-72
2021/04/17 10:48:24;;;;;;;4.13;2.30;;;;;;;18.76;32.09;99210.94;5046192;28;20044;-71
2021/04/17 10:51:02;;;;;;;5.15;2.63;;;;;;;18.16;33.32;99209.50;5049697;28;20040;-72
2021/04/17 10:53:32;;;;;;;5.38;2.33;;;;;;;19.19;32.48;99212.19;5046614;28;20780;-73
2021/04/17 10:56:01;;;;;;;4.70;2.17;;;;;;;17.85;33.04;99203.38;5035513;28;20037;-72
2021/04/17 10:58:34;;;;;;;5.05;2.17;;;;;;;17.08;33.52;99208.94;5044398;28;20142;-71
2021/04/17 11:01:03;;;;;;;6.35;2.03;;;;;;;19.07;31.11;99200.47;5048315;28;20039;-72
2021/04/17 11:03:42;;;;;;;3.28;2.13;;;;;;;21.19;28.85;99193.47;5046449;28;20024;-72
2021/04/17 11:06:14;;;;;;;5.82;2.38;;;;;;;21.41;28.69;99188.72;5041568;28;20116;-72
2021/04/17 11:08:40;;;;;;;3.83;1.67;;;;;;;22.55;26.49;99174.38;5044394;28;20072;-72
2021/04/17 11:11:13;;;;;;;3.45;1.90;;;;;;;20.65;28.02;99188.06;5047957;28;20037;-72
2021/04/17 11:13:43;;;;;;;3.03;1.90;;;;;;;20.28;29.20;99186.84;5042576;28;20061;-72
2021/04/17 11:16:14;;;;;;;2.92;1.73;;;;;;;19.62;28.70;99177.72;5048253;28;20559;-72
2021/04/17 11:18:44;;;;;;;3.25;1.80;;;;;;;20.11;30.07;99177.81;5038112;28;20018;-73
2021/04/17 11:21:12;;;;;;;3.92;2.00;;;;;;;19.97;28.73;99179.31;5043454;28;20123;-72
2021/04/17 11:24:00;;;;;;;3.60;1.92;;;;;;;20.17;28.87;99174.03;5049024;28;20031;-72
2021/04/17 11:26:28;;;;;;;3.50;1.70;;;;;;;21.63;26.91;99168.47;5045054;28;20060;-73
2021/04/17 11:28:55;;;;;;;2.95;1.60;;;;;;;22.59;25.55;99167.22;5039420;28;20120;-73
2021/04/17 11:31:24;;;;;;;2.28;1.30;;;;;;;21.89;26.11;99163.94;5048037;28;20035;-72
2021/04/17 11:33:50;;;;;;;;;;;;;;;21.84;27.24;99164.72;5049243;28;20029;-73
2021/04/17 11:36:15;;;;;;;5.32;2.10;;;;;;;23.48;25.67;99144.88;5048758;28;19978;-72
2021/04/17 11:38:41;;;;;;;2.55;1.58;;;;;;;24.59;24.75;99156.56;5041978;28;20048;-72